WGN618 KTUS-KSJC
Flight info
| Callsign | WGN618 |
|---|---|
| Flight time | 1h 31m |
| Altitude | 38000 |
| Route | WLDKT4 GBN J104 CULTS J212 DECAS J65 PMD J6 AVE MAKRS TROXX SILCN6 |
| Aircraft | MD1F/H-SDE1E2E3FGHIJ2J3J4J5M1RWXY/LB1D1 |
Departure
| Time | 2026-04-21 20:59 |
|---|---|
| Airport | Tucson International Airport (KTUS) |
Arrival
| Time | 2026-04-21 22:31 |
|---|---|
| Airport | Norman Y. Mineta San Jose International Airport (KSJC) |
| Time | Latitude | Longitude | Altitude | Speed | Heading |
|---|---|---|---|---|---|
| 2026-04-21 20:56 | 32.10320 | -110.92250 | 2659 ft | 0 kts | 219° |
| 2026-04-21 20:57 | 32.10312 | -110.92258 | 2659 ft | 5 kts | 219° |
| 2026-04-21 20:57 | 32.10262 | -110.92312 | 2658 ft | 11 kts | 235° |
| 2026-04-21 20:57 | 32.10287 | -110.92387 | 2656 ft | 12 kts | 312° |
| 2026-04-21 20:57 | 32.10300 | -110.92403 | 2655 ft | 0 kts | 313° |
| 2026-04-21 20:58 | 32.10302 | -110.92406 | 2655 ft | 1 kts | 313° |
| 2026-04-21 20:58 | 32.10331 | -110.92441 | 2654 ft | 11 kts | 315° |
| 2026-04-21 20:58 | 32.10488 | -110.92622 | 2648 ft | 66 kts | 315° |
| 2026-04-21 20:58 | 32.11079 | -110.93309 | 2631 ft | 151 kts | 315° |
| 2026-04-21 20:59 | 32.12014 | -110.94418 | 2929 ft | 184 kts | 315° |
| 2026-04-21 20:59 | 32.12982 | -110.95502 | 3667 ft | 187 kts | 314° |
| 2026-04-21 20:59 | 32.13949 | -110.96633 | 4405 ft | 190 kts | 311° |
| 2026-04-21 20:59 | 32.14932 | -110.97824 | 5056 ft | 194 kts | 311° |
| 2026-04-21 21:00 | 32.15905 | -110.98988 | 5680 ft | 197 kts | 311° |
| 2026-04-21 21:00 | 32.16937 | -111.00221 | 6066 ft | 215 kts | 311° |
| 2026-04-21 21:00 | 32.18062 | -111.01553 | 6468 ft | 230 kts | 312° |
| 2026-04-21 21:00 | 32.19253 | -111.02949 | 6863 ft | 254 kts | 312° |
| 2026-04-21 21:01 | 32.20593 | -111.04527 | 7462 ft | 277 kts | 313° |
| 2026-04-21 21:01 | 32.21968 | -111.06181 | 8296 ft | 290 kts | 304° |
| 2026-04-21 21:01 | 32.22852 | -111.08280 | 9240 ft | 291 kts | 282° |
| 2026-04-21 21:01 | 32.23246 | -111.10641 | 10181 ft | 298 kts | 274° |
| 2026-04-21 21:02 | 32.23494 | -111.13121 | 10851 ft | 320 kts | 275° |
| 2026-04-21 21:02 | 32.23793 | -111.15838 | 11285 ft | 350 kts | 276° |
| 2026-04-21 21:02 | 32.24178 | -111.18810 | 11748 ft | 379 kts | 278° |
| 2026-04-21 21:02 | 32.24639 | -111.21940 | 12681 ft | 391 kts | 278° |
| 2026-04-21 21:03 | 32.25101 | -111.25094 | 13736 ft | 398 kts | 277° |
| 2026-04-21 21:03 | 32.25563 | -111.28327 | 14865 ft | 402 kts | 277° |
| 2026-04-21 21:03 | 32.26032 | -111.31592 | 15988 ft | 406 kts | 278° |
| 2026-04-21 21:03 | 32.26517 | -111.34885 | 17083 ft | 410 kts | 279° |
| 2026-04-21 21:04 | 32.27011 | -111.38212 | 18151 ft | 414 kts | 279° |
| 2026-04-21 21:04 | 32.27517 | -111.41631 | 19233 ft | 418 kts | 280° |
| 2026-04-21 21:04 | 32.28324 | -111.45069 | 20273 ft | 423 kts | 289° |
| 2026-04-21 21:04 | 32.29569 | -111.48383 | 21235 ft | 429 kts | 297° |
| 2026-04-21 21:05 | 32.31227 | -111.51605 | 22204 ft | 435 kts | 301° |
| 2026-04-21 21:05 | 32.33007 | -111.54781 | 23204 ft | 440 kts | 302° |
| 2026-04-21 21:05 | 32.34831 | -111.58029 | 24245 ft | 445 kts | 302° |
| 2026-04-21 21:05 | 32.36663 | -111.61311 | 25199 ft | 450 kts | 301° |
| 2026-04-21 21:06 | 32.38536 | -111.64677 | 26094 ft | 455 kts | 301° |
| 2026-04-21 21:06 | 32.40429 | -111.68089 | 26994 ft | 460 kts | 301° |
| 2026-04-21 21:06 | 32.42375 | -111.71596 | 27929 ft | 464 kts | 301° |
| 2026-04-21 21:06 | 32.44467 | -111.75368 | 28902 ft | 469 kts | 301° |
| 2026-04-21 21:07 | 32.46612 | -111.79231 | 29993 ft | 471 kts | 301° |
| 2026-04-21 21:07 | 32.48749 | -111.83083 | 31309 ft | 466 kts | 301° |
| 2026-04-21 21:07 | 32.50866 | -111.86893 | 32694 ft | 458 kts | 302° |
| 2026-04-21 21:07 | 32.52923 | -111.90587 | 33942 ft | 451 kts | 302° |
| 2026-04-21 21:08 | 32.54920 | -111.94170 | 35129 ft | 445 kts | 302° |
| 2026-04-21 21:08 | 32.56894 | -111.97708 | 36107 ft | 442 kts | 302° |
| 2026-04-21 21:08 | 32.58843 | -112.01200 | 36951 ft | 439 kts | 302° |
| 2026-04-21 21:08 | 32.60802 | -112.04711 | 37676 ft | 438 kts | 302° |
| 2026-04-21 21:09 | 32.62714 | -112.08139 | 37942 ft | 437 kts | 302° |
| 2026-04-21 21:09 | 32.64628 | -112.11561 | 37894 ft | 432 kts | 302° |
| 2026-04-21 21:09 | 32.68465 | -112.18397 | 37954 ft | 432 kts | 302° |
| 2026-04-21 21:10 | 32.72340 | -112.25294 | 38007 ft | 434 kts | 302° |
| 2026-04-21 21:10 | 32.76246 | -112.32281 | 38006 ft | 435 kts | 303° |
| 2026-04-21 21:11 | 32.80087 | -112.39246 | 37999 ft | 434 kts | 301° |
| 2026-04-21 21:11 | 32.83909 | -112.46197 | 37998 ft | 435 kts | 301° |
| 2026-04-21 21:12 | 32.87685 | -112.53110 | 37984 ft | 435 kts | 302° |
| 2026-04-21 21:12 | 32.91490 | -112.60019 | 37975 ft | 435 kts | 301° |
| 2026-04-21 21:13 | 32.95536 | -112.66859 | 37978 ft | 436 kts | 307° |
| 2026-04-21 21:13 | 33.00211 | -112.73409 | 37962 ft | 437 kts | 308° |
| 2026-04-21 21:14 | 33.04939 | -112.79768 | 37950 ft | 439 kts | 309° |
| 2026-04-21 21:14 | 33.09575 | -112.85959 | 37948 ft | 438 kts | 309° |
| 2026-04-21 21:15 | 33.14319 | -112.92258 | 37944 ft | 439 kts | 309° |
| 2026-04-21 21:15 | 33.18932 | -112.98378 | 37946 ft | 439 kts | 308° |
| 2026-04-21 21:16 | 33.23483 | -113.04470 | 37962 ft | 440 kts | 308° |
| 2026-04-21 21:16 | 33.28061 | -113.10580 | 37950 ft | 440 kts | 308° |
| 2026-04-21 21:17 | 33.32657 | -113.16701 | 37959 ft | 440 kts | 308° |
| 2026-04-21 21:17 | 33.37250 | -113.22827 | 37949 ft | 439 kts | 309° |
| 2026-04-21 21:18 | 33.41806 | -113.28844 | 37957 ft | 440 kts | 308° |
| 2026-04-21 21:18 | 33.46472 | -113.35030 | 37960 ft | 441 kts | 308° |
| 2026-04-21 21:19 | 33.51093 | -113.41293 | 37958 ft | 441 kts | 309° |
| 2026-04-21 21:19 | 33.55636 | -113.47481 | 37958 ft | 440 kts | 304° |
| 2026-04-21 21:20 | 33.58899 | -113.54527 | 37982 ft | 430 kts | 286° |
| 2026-04-21 21:20 | 33.60527 | -113.62334 | 37967 ft | 429 kts | 281° |
| 2026-04-21 21:21 | 33.62011 | -113.70521 | 37968 ft | 430 kts | 281° |
| 2026-04-21 21:21 | 33.63526 | -113.78642 | 37963 ft | 430 kts | 279° |
| 2026-04-21 21:22 | 33.64988 | -113.86334 | 37963 ft | 428 kts | 279° |
| 2026-04-21 21:22 | 33.66328 | -113.93941 | 37964 ft | 428 kts | 280° |
| 2026-04-21 21:23 | 33.67735 | -114.01803 | 37969 ft | 429 kts | 280° |
| 2026-04-21 21:23 | 33.69112 | -114.09486 | 37972 ft | 429 kts | 280° |
| 2026-04-21 21:24 | 33.70491 | -114.17059 | 37966 ft | 428 kts | 279° |
| 2026-04-21 21:24 | 33.71826 | -114.24442 | 37955 ft | 428 kts | 279° |
| 2026-04-21 21:25 | 33.73182 | -114.31914 | 37930 ft | 428 kts | 279° |
| 2026-04-21 21:25 | 33.74567 | -114.39511 | 37928 ft | 426 kts | 279° |
| 2026-04-21 21:26 | 33.75959 | -114.47121 | 37911 ft | 426 kts | 279° |
| 2026-04-21 21:26 | 33.77102 | -114.54577 | 37907 ft | 423 kts | 275° |
| 2026-04-21 21:27 | 33.77728 | -114.62220 | 37912 ft | 421 kts | 272° |
| 2026-04-21 21:27 | 33.78178 | -114.70055 | 37913 ft | 421 kts | 270° |
| 2026-04-21 21:28 | 33.78557 | -114.77819 | 37931 ft | 420 kts | 271° |
| 2026-04-21 21:29 | 33.79208 | -114.89513 | 37931 ft | 418 kts | 271° |
| 2026-04-21 21:29 | 33.79624 | -114.97108 | 37931 ft | 418 kts | 270° |
| 2026-04-21 21:30 | 33.80027 | -115.04691 | 37920 ft | 417 kts | 271° |
| 2026-04-21 21:30 | 33.80441 | -115.12318 | 37912 ft | 416 kts | 271° |
| 2026-04-21 21:31 | 33.80877 | -115.19928 | 37920 ft | 416 kts | 271° |
| 2026-04-21 21:31 | 33.81305 | -115.27596 | 37910 ft | 417 kts | 271° |
| 2026-04-21 21:32 | 33.81757 | -115.35313 | 37917 ft | 416 kts | 271° |
| 2026-04-21 21:32 | 33.82359 | -115.43046 | 37932 ft | 418 kts | 277° |
| 2026-04-21 21:33 | 33.84054 | -115.50573 | 37947 ft | 423 kts | 285° |
| 2026-04-21 21:33 | 33.86338 | -115.58009 | 37965 ft | 423 kts | 285° |
| 2026-04-21 21:34 | 33.88694 | -115.65545 | 37980 ft | 423 kts | 285° |
| 2026-04-21 21:34 | 33.91054 | -115.73030 | 38016 ft | 423 kts | 285° |
| 2026-04-21 21:35 | 33.93377 | -115.80412 | 38006 ft | 422 kts | 286° |
| 2026-04-21 21:35 | 33.95663 | -115.87630 | 38023 ft | 421 kts | 285° |
| 2026-04-21 21:36 | 33.97975 | -115.94960 | 38042 ft | 422 kts | 285° |
| 2026-04-21 21:36 | 34.00259 | -116.02140 | 38050 ft | 420 kts | 285° |
| 2026-04-21 21:37 | 34.02547 | -116.09319 | 38051 ft | 420 kts | 285° |
| 2026-04-21 21:37 | 34.04803 | -116.16424 | 38053 ft | 421 kts | 285° |
| 2026-04-21 21:38 | 34.07071 | -116.23514 | 38042 ft | 421 kts | 285° |
| 2026-04-21 21:38 | 34.09271 | -116.30411 | 38028 ft | 421 kts | 285° |
| 2026-04-21 21:39 | 34.11622 | -116.37738 | 38026 ft | 421 kts | 284° |
| 2026-04-21 21:39 | 34.13955 | -116.44996 | 38017 ft | 421 kts | 285° |
| 2026-04-21 21:40 | 34.16309 | -116.52584 | 38042 ft | 420 kts | 284° |
| 2026-04-21 21:40 | 34.18594 | -116.60030 | 38039 ft | 422 kts | 284° |
| 2026-04-21 21:41 | 34.20927 | -116.67585 | 38067 ft | 422 kts | 284° |
| 2026-04-21 21:41 | 34.23284 | -116.75211 | 38068 ft | 421 kts | 284° |
| 2026-04-21 21:42 | 34.25640 | -116.82819 | 38070 ft | 422 kts | 284° |
| 2026-04-21 21:42 | 34.27988 | -116.90357 | 38059 ft | 422 kts | 284° |
| 2026-04-21 21:43 | 34.30299 | -116.97790 | 38044 ft | 422 kts | 283° |
| 2026-04-21 21:43 | 34.32584 | -117.05114 | 38049 ft | 422 kts | 283° |
| 2026-04-21 21:44 | 34.34749 | -117.12527 | 38056 ft | 420 kts | 283° |
| 2026-04-21 21:44 | 34.36938 | -117.19971 | 38042 ft | 420 kts | 283° |
| 2026-04-21 21:45 | 34.39075 | -117.27126 | 38048 ft | 420 kts | 283° |
| 2026-04-21 21:45 | 34.41214 | -117.34236 | 38044 ft | 421 kts | 283° |
| 2026-04-21 21:46 | 34.43376 | -117.41428 | 38026 ft | 420 kts | 283° |
| 2026-04-21 21:46 | 34.45593 | -117.48776 | 38027 ft | 419 kts | 283° |
| 2026-04-21 21:47 | 34.47818 | -117.56132 | 38030 ft | 419 kts | 283° |
| 2026-04-21 21:47 | 34.50020 | -117.63426 | 38034 ft | 419 kts | 284° |
| 2026-04-21 21:48 | 34.52316 | -117.70977 | 38025 ft | 419 kts | 283° |
| 2026-04-21 21:48 | 34.54625 | -117.78570 | 38005 ft | 420 kts | 283° |
| 2026-04-21 21:49 | 34.56944 | -117.86163 | 38010 ft | 419 kts | 283° |
| 2026-04-21 21:49 | 34.59245 | -117.93692 | 38043 ft | 420 kts | 283° |
| 2026-04-21 21:50 | 34.61521 | -118.01113 | 38046 ft | 421 kts | 284° |
| 2026-04-21 21:50 | 34.64707 | -118.08302 | 38049 ft | 433 kts | 297° |
| 2026-04-21 21:51 | 34.68918 | -118.14683 | 38040 ft | 438 kts | 301° |
| 2026-04-21 21:51 | 34.73039 | -118.20641 | 38039 ft | 438 kts | 301° |
| 2026-04-21 21:52 | 34.76994 | -118.26397 | 38029 ft | 438 kts | 301° |
| 2026-04-21 21:52 | 34.81204 | -118.32541 | 38046 ft | 438 kts | 301° |
| 2026-04-21 21:53 | 34.85527 | -118.38854 | 38023 ft | 437 kts | 301° |
| 2026-04-21 21:53 | 34.89998 | -118.45358 | 38015 ft | 437 kts | 301° |
| 2026-04-21 21:54 | 34.94434 | -118.51804 | 38011 ft | 435 kts | 301° |
| 2026-04-21 21:54 | 34.98878 | -118.58302 | 37995 ft | 433 kts | 300° |
| 2026-04-21 21:55 | 35.02846 | -118.65103 | 37933 ft | 425 kts | 293° |
| 2026-04-21 21:55 | 35.06295 | -118.72319 | 37998 ft | 423 kts | 291° |
| 2026-04-21 21:56 | 35.09621 | -118.79546 | 38002 ft | 422 kts | 292° |
| 2026-04-21 21:56 | 35.12961 | -118.86686 | 38013 ft | 422 kts | 291° |
| 2026-04-21 21:57 | 35.16295 | -118.93858 | 38014 ft | 423 kts | 291° |
| 2026-04-21 21:57 | 35.19648 | -119.01052 | 38007 ft | 423 kts | 292° |
| 2026-04-21 21:58 | 35.23000 | -119.08224 | 38021 ft | 421 kts | 292° |
| 2026-04-21 21:58 | 35.26368 | -119.15419 | 38020 ft | 421 kts | 292° |
| 2026-04-21 21:59 | 35.29736 | -119.22620 | 38009 ft | 419 kts | 292° |
| 2026-04-21 21:59 | 35.33064 | -119.29716 | 38027 ft | 419 kts | 292° |
| 2026-04-21 22:00 | 35.36418 | -119.36855 | 38008 ft | 420 kts | 292° |
| 2026-04-21 22:00 | 35.39786 | -119.44034 | 38019 ft | 420 kts | 292° |
| 2026-04-21 22:01 | 35.43176 | -119.51220 | 38024 ft | 420 kts | 292° |
| 2026-04-21 22:01 | 35.46559 | -119.58427 | 38008 ft | 420 kts | 291° |
| 2026-04-21 22:02 | 35.49866 | -119.65689 | 37996 ft | 420 kts | 291° |
| 2026-04-21 22:02 | 35.53193 | -119.72948 | 38015 ft | 420 kts | 291° |
| 2026-04-21 22:03 | 35.56529 | -119.80201 | 38007 ft | 419 kts | 291° |
| 2026-04-21 22:03 | 35.59834 | -119.87377 | 38004 ft | 418 kts | 291° |
| 2026-04-21 22:04 | 35.63045 | -119.94622 | 37979 ft | 413 kts | 287° |
| 2026-04-21 22:04 | 35.65039 | -120.02215 | 37995 ft | 403 kts | 275° |
| 2026-04-21 22:05 | 35.65893 | -120.10000 | 38008 ft | 400 kts | 272° |
| 2026-04-21 22:05 | 35.66633 | -120.17808 | 38008 ft | 400 kts | 272° |
| 2026-04-21 22:06 | 35.67398 | -120.25554 | 38014 ft | 400 kts | 273° |
| 2026-04-21 22:06 | 35.68646 | -120.33291 | 38024 ft | 407 kts | 283° |
| 2026-04-21 22:07 | 35.71497 | -120.40592 | 37677 ft | 422 kts | 294° |
| 2026-04-21 22:07 | 35.73340 | -120.44064 | 37049 ft | 422 kts | 296° |
| 2026-04-21 22:07 | 35.75182 | -120.47469 | 36397 ft | 417 kts | 295° |
| 2026-04-21 22:07 | 35.76996 | -120.50895 | 35756 ft | 413 kts | 295° |
| 2026-04-21 22:08 | 35.78760 | -120.54255 | 35170 ft | 414 kts | 295° |
| 2026-04-21 22:08 | 35.80582 | -120.57728 | 34664 ft | 418 kts | 294° |
| 2026-04-21 22:08 | 35.82376 | -120.61153 | 34092 ft | 421 kts | 295° |
| 2026-04-21 22:08 | 35.84212 | -120.64660 | 33501 ft | 423 kts | 295° |
| 2026-04-21 22:09 | 35.86033 | -120.68136 | 32813 ft | 425 kts | 294° |
| 2026-04-21 22:09 | 35.87873 | -120.71637 | 32164 ft | 422 kts | 294° |
| 2026-04-21 22:09 | 35.89704 | -120.75114 | 31489 ft | 423 kts | 294° |
| 2026-04-21 22:09 | 35.91544 | -120.78612 | 30859 ft | 421 kts | 294° |
| 2026-04-21 22:10 | 35.93398 | -120.82125 | 30201 ft | 419 kts | 294° |
| 2026-04-21 22:10 | 35.95224 | -120.85586 | 29579 ft | 420 kts | 294° |
| 2026-04-21 22:10 | 35.97042 | -120.89037 | 28952 ft | 422 kts | 294° |
| 2026-04-21 22:10 | 35.98902 | -120.92359 | 28362 ft | 427 kts | 299° |
| 2026-04-21 22:11 | 36.01034 | -120.95462 | 27777 ft | 432 kts | 302° |
| 2026-04-21 22:11 | 36.03343 | -120.98275 | 27264 ft | 441 kts | 309° |
| 2026-04-21 22:11 | 36.05885 | -121.00878 | 26706 ft | 448 kts | 312° |
| 2026-04-21 22:11 | 36.08551 | -121.03439 | 26136 ft | 452 kts | 313° |
| 2026-04-21 22:12 | 36.11205 | -121.05981 | 25555 ft | 455 kts | 313° |
| 2026-04-21 22:12 | 36.13928 | -121.08591 | 24944 ft | 456 kts | 314° |
| 2026-04-21 22:12 | 36.16534 | -121.11071 | 24379 ft | 454 kts | 314° |
| 2026-04-21 22:12 | 36.19085 | -121.13493 | 23798 ft | 447 kts | 313° |
| 2026-04-21 22:13 | 36.21542 | -121.15833 | 23236 ft | 439 kts | 313° |
| 2026-04-21 22:13 | 36.24002 | -121.18198 | 22711 ft | 434 kts | 315° |
| 2026-04-21 22:13 | 36.26450 | -121.20557 | 22147 ft | 434 kts | 315° |
| 2026-04-21 22:13 | 36.28877 | -121.22890 | 21571 ft | 437 kts | 315° |
| 2026-04-21 22:14 | 36.31311 | -121.25216 | 20991 ft | 438 kts | 315° |
| 2026-04-21 22:14 | 36.33728 | -121.27514 | 20444 ft | 431 kts | 316° |
| 2026-04-21 22:14 | 36.36080 | -121.29749 | 20034 ft | 414 kts | 316° |
| 2026-04-21 22:14 | 36.38338 | -121.31943 | 19387 ft | 395 kts | 316° |
| 2026-04-21 22:15 | 36.40448 | -121.34011 | 18896 ft | 377 kts | 315° |
| 2026-04-21 22:15 | 36.42458 | -121.35963 | 18505 ft | 361 kts | 315° |
| 2026-04-21 22:15 | 36.44444 | -121.37881 | 18308 ft | 351 kts | 316° |
| 2026-04-21 22:15 | 36.46359 | -121.39729 | 18221 ft | 352 kts | 315° |
| 2026-04-21 22:16 | 36.48373 | -121.41592 | 17703 ft | 357 kts | 321° |
| 2026-04-21 22:16 | 36.50536 | -121.43147 | 17167 ft | 363 kts | 329° |
| 2026-04-21 22:16 | 36.52903 | -121.44366 | 16619 ft | 367 kts | 336° |
| 2026-04-21 22:16 | 36.55370 | -121.45398 | 16047 ft | 369 kts | 335° |
| 2026-04-21 22:17 | 36.57899 | -121.46455 | 15504 ft | 370 kts | 338° |
| 2026-04-21 22:17 | 36.60340 | -121.47478 | 14953 ft | 370 kts | 336° |
| 2026-04-21 22:17 | 36.62811 | -121.48526 | 14383 ft | 371 kts | 336° |
| 2026-04-21 22:17 | 36.65280 | -121.49577 | 13814 ft | 371 kts | 337° |
| 2026-04-21 22:18 | 36.67730 | -121.50618 | 13237 ft | 371 kts | 337° |
| 2026-04-21 22:18 | 36.70147 | -121.51641 | 12649 ft | 360 kts | 338° |
| 2026-04-21 22:18 | 36.72503 | -121.52627 | 12236 ft | 345 kts | 337° |
| 2026-04-21 22:18 | 36.74726 | -121.53567 | 11969 ft | 336 kts | 336° |
| 2026-04-21 22:19 | 36.76978 | -121.54532 | 11562 ft | 337 kts | 336° |
| 2026-04-21 22:19 | 36.79224 | -121.55504 | 11070 ft | 339 kts | 336° |
| 2026-04-21 22:19 | 36.81435 | -121.56445 | 10586 ft | 340 kts | 338° |
| 2026-04-21 22:19 | 36.83699 | -121.57394 | 10007 ft | 339 kts | 339° |
| 2026-04-21 22:20 | 36.85901 | -121.58321 | 9605 ft | 325 kts | 338° |
| 2026-04-21 22:20 | 36.88053 | -121.59239 | 9454 ft | 307 kts | 337° |
| 2026-04-21 22:20 | 36.90109 | -121.60112 | 9501 ft | 293 kts | 337° |
| 2026-04-21 22:20 | 36.92044 | -121.60944 | 9528 ft | 291 kts | 337° |
| 2026-04-21 22:21 | 36.93998 | -121.61787 | 9254 ft | 291 kts | 337° |
| 2026-04-21 22:21 | 36.95943 | -121.62618 | 8831 ft | 287 kts | 338° |
| 2026-04-21 22:21 | 36.97918 | -121.63452 | 8336 ft | 291 kts | 338° |
| 2026-04-21 22:21 | 36.99923 | -121.64292 | 7789 ft | 290 kts | 338° |
| 2026-04-21 22:22 | 37.01895 | -121.65121 | 7242 ft | 280 kts | 338° |
| 2026-04-21 22:22 | 37.03690 | -121.65879 | 7000 ft | 260 kts | 337° |
| 2026-04-21 22:22 | 37.05366 | -121.66592 | 6550 ft | 252 kts | 337° |
| 2026-04-21 22:22 | 37.06994 | -121.67290 | 6134 ft | 244 kts | 336° |
| 2026-04-21 22:23 | 37.08631 | -121.67992 | 5747 ft | 237 kts | 336° |
| 2026-04-21 22:23 | 37.10107 | -121.68626 | 5414 ft | 229 kts | 338° |
| 2026-04-21 22:23 | 37.11543 | -121.69234 | 5126 ft | 215 kts | 337° |
| 2026-04-21 22:23 | 37.12892 | -121.69804 | 4801 ft | 206 kts | 337° |
| 2026-04-21 22:24 | 37.14140 | -121.70337 | 4516 ft | 198 kts | 338° |
| 2026-04-21 22:24 | 37.15355 | -121.70854 | 4238 ft | 196 kts | 338° |
| 2026-04-21 22:24 | 37.16494 | -121.71493 | 3976 ft | 191 kts | 324° |
| 2026-04-21 22:24 | 37.17478 | -121.72317 | 3853 ft | 179 kts | 316° |
| 2026-04-21 22:25 | 37.18340 | -121.73198 | 3783 ft | 168 kts | 314° |
| 2026-04-21 22:25 | 37.19099 | -121.74062 | 3740 ft | 163 kts | 309° |
| 2026-04-21 22:25 | 37.19862 | -121.74970 | 3675 ft | 163 kts | 313° |
| 2026-04-21 22:25 | 37.20645 | -121.75850 | 3533 ft | 163 kts | 313° |
| 2026-04-21 22:26 | 37.21432 | -121.76732 | 3271 ft | 162 kts | 314° |
| 2026-04-21 22:26 | 37.22195 | -121.77568 | 3257 ft | 159 kts | 314° |
| 2026-04-21 22:26 | 37.22969 | -121.78411 | 3297 ft | 160 kts | 314° |
| 2026-04-21 22:26 | 37.23770 | -121.79288 | 3101 ft | 166 kts | 314° |
| 2026-04-21 22:27 | 37.24558 | -121.80143 | 2893 ft | 163 kts | 314° |
| 2026-04-21 22:27 | 37.25348 | -121.81005 | 2710 ft | 161 kts | 314° |
| 2026-04-21 22:27 | 37.26117 | -121.81845 | 2520 ft | 161 kts | 314° |
| 2026-04-21 22:27 | 37.26891 | -121.82692 | 2315 ft | 159 kts | 314° |
| 2026-04-21 22:28 | 37.27667 | -121.83541 | 2127 ft | 156 kts | 313° |
| 2026-04-21 22:28 | 37.28422 | -121.84373 | 1942 ft | 156 kts | 313° |
| 2026-04-21 22:28 | 37.29171 | -121.85197 | 1747 ft | 156 kts | 313° |
| 2026-04-21 22:28 | 37.29931 | -121.86034 | 1550 ft | 155 kts | 314° |
| 2026-04-21 22:29 | 37.30729 | -121.86912 | 1358 ft | 155 kts | 314° |
| 2026-04-21 22:29 | 37.31551 | -121.87816 | 1146 ft | 157 kts | 314° |
| 2026-04-21 22:29 | 37.32393 | -121.88744 | 919 ft | 155 kts | 314° |
| 2026-04-21 22:29 | 37.33215 | -121.89645 | 718 ft | 155 kts | 315° |
| 2026-04-21 22:30 | 37.34045 | -121.90555 | 506 ft | 155 kts | 315° |
| 2026-04-21 22:30 | 37.34843 | -121.91435 | 312 ft | 155 kts | 316° |
| 2026-04-21 22:30 | 37.35638 | -121.92310 | 126 ft | 155 kts | 317° |
| 2026-04-21 22:30 | 37.36406 | -121.93142 | 56 ft | 117 kts | 317° |
| 2026-04-21 22:31 | 37.36804 | -121.93577 | 50 ft | 39 kts | 319° |
| 2026-04-21 22:31 | 37.36916 | -121.93697 | 49 ft | 18 kts | 319° |
| 2026-04-21 22:31 | 37.37059 | -121.93836 | 49 ft | 29 kts | 345° |
| 2026-04-21 22:31 | 37.37227 | -121.93708 | 46 ft | 25 kts | 50° |
| 2026-04-21 22:32 | 37.37240 | -121.93574 | 46 ft | 19 kts | 132° |
| 2026-04-21 22:32 | 37.37132 | -121.93452 | 46 ft | 23 kts | 139° |
| 2026-04-21 22:32 | 37.37005 | -121.93317 | 46 ft | 26 kts | 140° |
| 2026-04-21 22:32 | 37.36866 | -121.93166 | 49 ft | 28 kts | 138° |
| 2026-04-21 22:33 | 37.36711 | -121.92995 | 52 ft | 30 kts | 139° |
| 2026-04-21 22:33 | 37.36547 | -121.92815 | 54 ft | 33 kts | 138° |
| 2026-04-21 22:33 | 37.36367 | -121.92619 | 55 ft | 35 kts | 139° |
| 2026-04-21 22:33 | 37.36179 | -121.92412 | 59 ft | 37 kts | 139° |
| 2026-04-21 22:34 | 37.35970 | -121.92182 | 60 ft | 40 kts | 139° |
| 2026-04-21 22:34 | 37.35749 | -121.91941 | 64 ft | 42 kts | 138° |
| 2026-04-21 22:34 | 37.35562 | -121.91740 | 68 ft | 21 kts | 140° |
| 2026-04-21 22:34 | 37.35470 | -121.91632 | 69 ft | 17 kts | 116° |
| 2026-04-21 22:35 | 37.35546 | -121.91602 | 67 ft | 13 kts | 323° |
| 2026-04-21 22:35 | 37.35601 | -121.91643 | 66 ft | 10 kts | 347° |
| 2026-04-21 22:35 | 37.35664 | -121.91640 | 66 ft | 0 kts | 5° |
| 2026-04-21 22:35 | 37.35667 | -121.91640 | 66 ft | 1 kts | 5° |